Aérodrome :
LOGIN :

S'inscrire | Disclaimer

   EN    FR    IT 

 










Légende :    VFR   VFR Marginal   IFR   IFR Intensif   IFR Très Intensif
Visi : 
Plafond : 
>= 8 km
>= 3000ft
5 à 8 km
1000 à 3000 ft
1500m à 5 km
500 à 1000 ft
800 à 1500m
200 à 500 ft
< 800m
< 200 ft
Symboles :   Orages  Brouillard  Fortes neiges  Fortes précipitations  Vent > 20 kt
SIGMETs :   Divers  Orages  Givrage  Turbulence  Onde Orograph.  Cendres Volcan.






- Altitude de l'aérodrome : 1521 ft
- Code IATA : NCY


LFLP - Annecy

DERNIER METAR :
  • 172230Z AUTO 34009KT 310V020 7000 -RA FEW014 BKN026 OVC036 05/03 Q1029

METARs EXPIRÉS :
  • 172200Z AUTO 08006KT 9999 -RA OVC036 06/05 Q1029
  • 172130Z AUTO 14003KT 100V170 9999 FEW037/// OVC054/// ///TCU 07/05 Q1029
  • 172100Z AUTO 15005KT 110V180 9999 SCT044 OVC054 07/05 Q1028
  • 172030Z AUTO 10003KT 010V140 9999 BKN034 BKN041 OVC050 07/05 Q1028
  • 172000Z AUTO 02003KT 330V050 9999 -RA BKN031 BKN038 OVC046 07/05 Q1028 TEMPO 3000 RA OVC009
  • 171930Z AUTO VRB05KT 9999 -RA BKN028 BKN035 BKN043 07/05 Q1028 TEMPO 3000 RA OVC009

TAF TAF LFLP
Valide du 17 à 15h jusqu'au 18 à 15h UTC


171400Z 1715/1815 22009KT 9999 -RA BKN025
TEMPO 1715/1721 VRB10KT 3000 RA OVC009
BECMG 1800/1803 VRB03KT CAVOK



MET'MAP, la Météo Aéronautique d'un coup d'oeil ! - Copyright ORBIFLY Décembre 2007 - Disclaimer

ORBIFLY MET'MAP TEAM :

Programmation & Développement : Alexandra Zaïnal
Sur une idée originale de : Baudouin d'Aumeries
Assistance à la programmation : Marc-Olivier Méhu
Soutien technique & logistique : Manuel Goepfert

Contact : metmap@orbifly.com




SOURCES & CREDITS :

   NOAA